createdAt,value
2019-02-19T05:00:50.574Z,32.87
2019-02-19T05:03:13.110Z,29.67
2019-02-19T05:05:35.534Z,32.37
2019-02-19T05:07:57.976Z,33.33
2019-02-19T05:10:20.407Z,35.30
2019-02-19T05:12:42.932Z,31.27
2019-02-19T06:02:38.963Z,33.63
2019-02-19T06:05:06.360Z,33.90
2019-02-19T06:07:29.516Z,35.73
2019-02-19T06:10:04.460Z,34.77
2019-02-19T06:12:39.631Z,36.90
2019-02-19T07:02:59.104Z,33.83
2019-02-19T07:05:23.222Z,33.80
2019-02-19T07:07:45.647Z,34.63
2019-02-19T07:10:08.120Z,30.77
2019-02-19T07:12:30.627Z,32.70
2019-02-19T07:14:54.200Z,31.97
2019-02-19T07:17:17.215Z,33.40
2019-02-19T07:19:40.208Z,32.10
2019-02-19T07:22:03.378Z,33.30
2019-02-19T07:24:26.011Z,29.30
2019-02-19T07:26:48.760Z,35.73
2019-02-19T07:29:11.258Z,30.90
2019-02-19T07:31:33.695Z,30.97
2019-02-19T07:33:56.134Z,27.57
2019-02-19T07:36:18.570Z,34.77
2019-02-19T07:38:41.064Z,31.97
2019-02-19T07:41:03.509Z,31.33
2019-02-19T07:43:26.022Z,31.10
2019-02-19T07:45:48.462Z,31.53
2019-02-19T07:48:11.264Z,29.53
2019-02-19T07:50:33.723Z,29.87
2019-02-19T07:52:56.265Z,30.40
2019-02-19T07:55:18.682Z,35.73
2019-02-19T07:57:42.873Z,33.93
2019-02-19T08:00:06.074Z,31.37
2019-02-19T08:02:28.589Z,29.93
2019-02-19T08:04:51.120Z,30.27
2019-02-19T08:07:13.763Z,30.23
2019-02-19T08:09:36.178Z,25.47
2019-02-19T08:11:58.619Z,30.53
2019-02-19T08:14:21.133Z,29.40
2019-02-19T09:02:28.280Z,20.60
2019-02-19T09:04:50.824Z,22.60
2019-02-19T09:07:13.364Z,19.83
2019-02-19T09:09:35.875Z,21.70
2019-02-19T09:11:58.306Z,25.50
2019-02-19T09:14:20.743Z,24.13
2019-02-19T10:10:00.252Z,24.07
2019-02-19T10:12:34.900Z,22.87
2019-02-19T11:01:52.499Z,23.03
2019-02-19T11:04:15.242Z,21.20
2019-02-19T11:06:38.995Z,20.73
2019-02-19T11:09:27.759Z,20.27
2019-02-19T11:12:03.130Z,22.70
2019-02-19T11:14:38.260Z,17.63
2019-02-19T11:17:00.995Z,16.83
2019-02-19T11:19:54.970Z,17.03
2019-02-19T11:22:20.530Z,20.73
2019-02-19T11:25:02.660Z,17.13
2019-02-19T11:27:38.018Z,19.07
2019-02-19T11:30:13.037Z,20.13
2019-02-19T11:32:48.060Z,13.13
2019-02-19T11:35:23.186Z,15.43
2019-02-19T11:37:58.175Z,15.20
2019-02-19T11:40:33.351Z,14.50
2019-02-19T11:43:08.535Z,20.63
2019-02-19T11:45:43.559Z,16.07
2019-02-19T11:48:19.206Z,15.77
2019-02-19T11:50:54.760Z,16.17
2019-02-19T11:53:29.967Z,12.60
2019-02-19T11:56:05.072Z,11.97
2019-02-19T11:58:40.307Z,11.07
2019-02-19T12:01:15.706Z,14.70
2019-02-19T12:03:50.508Z,12.30
2019-02-19T12:06:25.813Z,12.17
2019-02-19T12:09:01.224Z,12.33
2019-02-19T12:11:38.299Z,12.77
2019-02-19T12:14:14.532Z,14.10
2019-02-19T13:00:47.290Z,13.43
2019-02-19T13:03:22.434Z,13.37
2019-02-19T13:05:57.958Z,11.40
2019-02-19T13:08:32.830Z,11.13
2019-02-19T13:11:07.805Z,15.00
2019-02-19T13:13:42.855Z,11.13
2019-02-19T14:02:02.603Z,11.93
2019-02-19T14:04:25.180Z,13.67
2019-02-19T14:06:47.775Z,11.77
2019-02-19T14:09:10.338Z,12.47
2019-02-19T14:11:55.309Z,13.27
2019-02-19T14:14:56.781Z,12.60
2019-02-19T14:37:57.147Z,12.30
2019-02-19T14:40:39.458Z,11.97
2019-02-19T14:43:37.060Z,14.00
2019-02-19T14:46:11.993Z,16.00
2019-02-19T14:48:44.568Z,19.23
2019-02-19T14:51:24.937Z,13.40
2019-02-19T14:57:10.022Z,13.33
2019-02-19T15:03:19.690Z,16.23
2019-02-19T15:12:11.795Z,15.87
2019-02-19T15:14:53.789Z,14.63
2019-02-19T16:01:07.807Z,15.73
2019-02-19T16:03:35.869Z,15.37
2019-02-19T16:06:05.071Z,19.97
2019-02-19T16:08:35.822Z,17.03
2019-02-19T16:11:17.104Z,18.77
2019-02-19T16:14:16.720Z,16.47
2019-02-19T16:34:50.432Z,23.07
2019-02-19T16:55:33.382Z,20.43
2019-02-19T16:58:14.154Z,21.77
2019-02-19T17:00:51.336Z,23.57
2019-02-19T17:03:35.153Z,22.87
2019-02-19T17:06:36.761Z,22.37
2019-02-19T17:09:17.253Z,23.00
2019-02-19T17:11:49.346Z,22.40
2019-02-19T17:14:50.724Z,21.63
2019-02-19T18:01:23.394Z,24.17
2019-02-19T18:04:18.353Z,21.93
2019-02-19T18:07:11.191Z,22.67
2019-02-19T18:09:56.915Z,22.87
2019-02-19T18:12:51.674Z,31.53
2019-02-19T19:02:46.366Z,22.97
2019-02-19T19:05:21.555Z,30.73
2019-02-19T19:07:56.647Z,27.77
2019-02-19T19:10:31.411Z,28.07
2019-02-19T19:13:06.734Z,28.63
2019-02-19T20:02:46.431Z,36.77
2019-02-19T20:05:21.460Z,31.83
2019-02-19T20:07:56.619Z,33.27
2019-02-19T20:10:32.544Z,28.43
2019-02-19T20:13:07.795Z,29.70
2019-02-19T21:01:11.883Z,29.40
2019-02-19T21:03:46.956Z,29.63
2019-02-19T21:06:22.231Z,31.97
2019-02-19T21:08:57.160Z,32.40
2019-02-19T21:11:32.252Z,31.00
2019-02-19T21:14:07.118Z,36.87
